createdAt,value
2019-02-18T00:00:03.941Z,1016.96
2019-02-18T00:01:03.970Z,1016.97
2019-02-18T00:02:03.922Z,1016.96
2019-02-18T00:03:03.915Z,1016.99
2019-02-18T00:04:03.903Z,1016.99
2019-02-18T00:05:03.903Z,1017.00
2019-02-18T00:06:03.955Z,1016.96
2019-02-18T00:07:13.794Z,1016.96
2019-02-18T00:08:04.854Z,1017.04
2019-02-18T00:09:03.849Z,1017.04
2019-02-18T00:10:03.837Z,1017.01
2019-02-18T00:11:03.836Z,1017.00
2019-02-18T00:12:03.884Z,1016.97
2019-02-18T00:13:03.805Z,1016.95
2019-02-18T00:14:03.813Z,1017.01
2019-02-18T00:15:03.781Z,1016.94
2019-02-18T00:16:03.778Z,1016.96
2019-02-18T00:17:03.756Z,1016.94
2019-02-18T00:18:03.783Z,1016.99
2019-02-18T00:19:03.739Z,1016.96
2019-02-18T00:20:03.732Z,1016.97
2019-02-18T00:21:03.714Z,1016.93
2019-02-18T00:22:03.736Z,1016.94
2019-02-18T00:23:03.719Z,1016.96
2019-02-18T00:24:03.683Z,1016.96
2019-02-18T00:25:03.678Z,1016.95
2019-02-18T00:26:03.672Z,1016.94
2019-02-18T00:27:03.651Z,1016.94
2019-02-18T00:28:03.674Z,1016.90
2019-02-18T00:29:03.630Z,1016.96
2019-02-18T00:30:03.622Z,1016.91
2019-02-18T00:31:03.605Z,1016.90
2019-02-18T00:32:03.602Z,1016.92
2019-02-18T00:33:03.625Z,1016.94
2019-02-18T00:34:03.571Z,1016.86
2019-02-18T00:35:03.569Z,1016.88
2019-02-18T00:36:03.549Z,1016.91
2019-02-18T00:37:03.536Z,1016.94
2019-02-18T00:38:03.525Z,1016.88
2019-02-18T00:39:03.568Z,1016.85
2019-02-18T00:40:03.504Z,1016.87
2019-02-18T00:41:03.492Z,1016.81
2019-02-18T00:42:03.488Z,1016.86
2019-02-18T00:43:03.511Z,1016.84
2019-02-18T00:44:03.477Z,1016.85
2019-02-18T00:45:03.453Z,1016.85
2019-02-18T00:46:03.444Z,1016.78
2019-02-18T00:47:03.426Z,1016.79
2019-02-18T00:48:03.421Z,1016.80
2019-02-18T00:49:03.433Z,1016.81
2019-02-18T00:50:03.405Z,1016.79
2019-02-18T00:51:03.386Z,1016.82
2019-02-18T00:52:03.379Z,1016.78
2019-02-18T00:53:04.090Z,1016.76
2019-02-18T00:54:03.353Z,1016.77
2019-02-18T00:55:03.385Z,1016.77
2019-02-18T00:56:03.332Z,1016.73
2019-02-18T00:57:03.316Z,1016.75
2019-02-18T00:58:03.309Z,1016.72
2019-02-18T00:59:03.309Z,1016.73
2019-02-18T01:00:03.301Z,1016.74
2019-02-18T01:01:03.272Z,1016.77
2019-02-18T01:02:03.269Z,1016.78
2019-02-18T01:03:03.274Z,1016.75
2019-02-18T01:04:03.242Z,1016.73
2019-02-18T01:05:03.258Z,1016.73
2019-02-18T01:06:03.232Z,1016.78
2019-02-18T01:07:03.207Z,1016.80
2019-02-18T01:08:03.198Z,1016.80
2019-02-18T01:09:03.196Z,1016.75
2019-02-18T01:10:03.197Z,1016.82
2019-02-18T01:11:03.237Z,1016.84
2019-02-18T01:12:03.154Z,1016.75
2019-02-18T01:13:03.146Z,1016.78
2019-02-18T01:14:03.135Z,1016.79
2019-02-18T01:15:03.121Z,1016.74
2019-02-18T01:16:03.149Z,1016.74
2019-02-18T01:17:03.099Z,1016.75
2019-02-18T01:18:03.092Z,1016.71
2019-02-18T01:19:03.079Z,1016.73
2019-02-18T01:20:03.066Z,1016.74
2019-02-18T01:21:03.088Z,1016.69
2019-02-18T01:22:03.055Z,1016.73
2019-02-18T01:23:03.045Z,1016.70
2019-02-18T01:24:03.029Z,1016.77
2019-02-18T01:25:03.021Z,1016.78
2019-02-18T01:26:03.007Z,1016.74
2019-02-18T01:27:03.063Z,1016.75
2019-02-18T01:28:02.982Z,1016.72
2019-02-18T01:29:02.968Z,1016.72
2019-02-18T01:30:02.951Z,1016.65
2019-02-18T01:31:02.939Z,1016.67
2019-02-18T01:32:02.968Z,1016.64
2019-02-18T01:33:02.969Z,1016.61
2019-02-18T01:34:02.912Z,1016.61
2019-02-18T01:35:02.903Z,1016.54
2019-02-18T01:36:02.887Z,1016.54
2019-02-18T01:37:02.873Z,1016.54
2019-02-18T01:38:02.904Z,1016.54
2019-02-18T01:39:02.852Z,1016.51
2019-02-18T01:40:02.847Z,1016.45
2019-02-18T01:41:02.834Z,1016.50
2019-02-18T01:42:02.824Z,1016.47
2019-02-18T01:43:02.860Z,1016.51
2019-02-18T01:44:02.797Z,1016.45
2019-02-18T01:45:02.789Z,1016.46
2019-02-18T01:46:02.779Z,1016.40
2019-02-18T01:47:02.763Z,1016.46
2019-02-18T01:48:02.782Z,1016.39
2019-02-18T01:49:02.781Z,1016.40
2019-02-18T01:50:02.731Z,1016.41
2019-02-18T01:51:02.726Z,1016.45
2019-02-18T01:52:02.708Z,1016.40
2019-02-18T01:53:02.706Z,1016.37
2019-02-18T01:54:02.735Z,1016.34
2019-02-18T01:55:02.752Z,1016.41
2019-02-18T01:56:02.663Z,1016.40
2019-02-18T01:57:02.663Z,1016.34
2019-02-18T01:58:02.659Z,1016.33
2019-02-18T01:59:02.704Z,1016.34
2019-02-18T02:00:02.628Z,1016.39
2019-02-18T02:01:02.622Z,1016.41
2019-02-18T02:02:02.603Z,1016.37
2019-02-18T02:03:02.599Z,1016.41
2019-02-18T02:04:02.587Z,1016.40
2019-02-18T02:05:02.574Z,1016.37
2019-02-18T02:06:02.573Z,1016.36
2019-02-18T02:07:02.550Z,1016.37
2019-02-18T02:08:02.537Z,1016.33
2019-02-18T02:09:02.531Z,1016.34
2019-02-18T02:10:02.564Z,1016.37
2019-02-18T02:11:02.554Z,1016.37
2019-02-18T02:12:02.494Z,1016.34
2019-02-18T02:13:02.476Z,1016.32
2019-02-18T02:14:02.478Z,1016.34
2019-02-18T02:15:02.455Z,1016.35
2019-02-18T02:16:02.472Z,1016.30
2019-02-18T02:17:02.439Z,1016.33
2019-02-18T02:18:02.423Z,1016.30
2019-02-18T02:19:02.432Z,1016.29
2019-02-18T02:20:02.404Z,1016.29
2019-02-18T02:21:02.458Z,1016.29
2019-02-18T02:22:02.382Z,1016.28
2019-02-18T02:23:02.370Z,1016.26
2019-02-18T02:24:02.356Z,1016.24
2019-02-18T02:25:02.358Z,1016.23
2019-02-18T02:26:02.369Z,1016.26
2019-02-18T02:27:02.329Z,1016.23
2019-02-18T02:28:02.315Z,1016.22
2019-02-18T02:29:02.301Z,1016.22
2019-02-18T02:30:02.314Z,1016.21
2019-02-18T02:31:02.373Z,1016.28
2019-02-18T02:32:02.314Z,1016.22
2019-02-18T02:33:02.262Z,1016.26
2019-02-18T02:34:02.255Z,1016.23
2019-02-18T02:35:02.242Z,1016.25
2019-02-18T02:36:02.229Z,1016.24
2019-02-18T02:37:02.253Z,1016.23
2019-02-18T02:38:07.741Z,1016.24
2019-02-18T02:39:03.198Z,1016.22
2019-02-18T02:40:02.180Z,1016.22
2019-02-18T02:41:02.173Z,1016.22
2019-02-18T02:42:02.218Z,1016.24
2019-02-18T02:43:02.172Z,1016.23
2019-02-18T02:44:02.139Z,1016.22
2019-02-18T02:45:02.182Z,1016.23
2019-02-18T02:46:02.117Z,1016.19
2019-02-18T02:47:02.109Z,1016.25
2019-02-18T02:48:02.116Z,1016.17
2019-02-18T02:49:02.085Z,1016.17
2019-02-18T02:50:02.068Z,1016.18
2019-02-18T02:51:02.062Z,1016.11
2019-02-18T02:52:02.051Z,1016.12
2019-02-18T02:53:02.076Z,1016.13
2019-02-18T02:54:02.046Z,1016.14
2019-02-18T02:55:02.013Z,1016.11
2019-02-18T02:56:02.006Z,1016.11
2019-02-18T02:57:01.993Z,1016.11
2019-02-18T02:58:01.980Z,1016.08
2019-02-18T02:59:02.008Z,1016.06
2019-02-18T03:00:01.961Z,1016.12
2019-02-18T03:01:01.953Z,1016.06
2019-02-18T03:02:01.935Z,1016.04
2019-02-18T03:03:01.931Z,1016.05
2019-02-18T03:04:01.972Z,1016.01
2019-02-18T03:05:01.917Z,1016.04
2019-02-18T03:06:01.897Z,1016.05
2019-02-18T03:07:01.885Z,1016.00
2019-02-18T03:08:01.873Z,1016.05
2019-02-18T03:09:01.914Z,1016.03
2019-02-18T03:10:01.849Z,1016.01
2019-02-18T03:11:01.858Z,1015.95
2019-02-18T03:12:01.831Z,1016.02
2019-02-18T03:13:01.818Z,1016.01
2019-02-18T03:14:01.808Z,1016.01
2019-02-18T03:15:01.819Z,1016.01
2019-02-18T03:16:01.780Z,1016.03
2019-02-18T03:17:01.771Z,1016.04
2019-02-18T03:18:01.763Z,1016.03
2019-02-18T03:19:01.753Z,1016.01
2019-02-18T03:20:01.749Z,1016.01
2019-02-18T03:21:01.731Z,1016.04
2019-02-18T03:22:01.727Z,1016.05
2019-02-18T03:23:01.704Z,1016.04
2019-02-18T03:24:01.697Z,1016.08
2019-02-18T03:25:01.755Z,1016.05
2019-02-18T03:26:01.670Z,1016.06
2019-02-18T03:27:01.664Z,1016.05
2019-02-18T03:28:01.652Z,1016.08
2019-02-18T03:29:01.641Z,1016.06
2019-02-18T03:30:01.638Z,1016.07
2019-02-18T03:31:01.730Z,1016.11
2019-02-18T03:32:01.614Z,1016.07
2019-02-18T03:33:01.604Z,1016.10
2019-02-18T03:34:01.584Z,1016.13
2019-02-18T03:35:01.586Z,1016.13
2019-02-18T03:36:01.601Z,1016.12
2019-02-18T03:37:01.690Z,1016.12
2019-02-18T03:38:01.539Z,1016.11
2019-02-18T03:39:01.539Z,1016.14
2019-02-18T03:40:01.519Z,1016.06
2019-02-18T03:41:03.383Z,1016.13
2019-02-18T03:42:01.576Z,1016.12
2019-02-18T03:43:01.483Z,1016.12
2019-02-18T03:44:01.499Z,1016.15
2019-02-18T03:45:01.468Z,1016.10
2019-02-18T03:46:01.467Z,1016.14
2019-02-18T03:47:01.445Z,1016.09
2019-02-18T03:48:01.433Z,1016.11
2019-02-18T03:49:01.416Z,1016.08
2019-02-18T03:50:01.409Z,1016.10
2019-02-18T03:51:01.436Z,1016.13
2019-02-18T03:52:01.388Z,1016.14
2019-02-18T03:53:01.375Z,1016.10
2019-02-18T03:54:01.365Z,1016.11
2019-02-18T03:55:01.356Z,1016.05
2019-02-18T03:56:01.370Z,1016.08
2019-02-18T03:57:01.338Z,1016.05
2019-02-18T03:58:01.329Z,1016.05
2019-02-18T03:59:01.304Z,1016.05
2019-02-18T04:00:01.300Z,1016.00
2019-02-18T04:01:01.289Z,1016.06
2019-02-18T04:02:01.325Z,1016.04
2019-02-18T04:03:01.266Z,1016.02
2019-02-18T04:04:01.257Z,1016.01
2019-02-18T04:05:01.245Z,1016.03
2019-02-18T04:06:01.232Z,1016.08
2019-02-18T04:07:01.253Z,1016.07
2019-02-18T04:08:01.250Z,1016.03
2019-02-18T04:09:01.237Z,1016.04
2019-02-18T04:10:01.208Z,1016.07
2019-02-18T04:11:01.177Z,1016.03
2019-02-18T04:12:01.167Z,1016.08
2019-02-18T04:13:01.153Z,1016.04
2019-02-18T04:14:01.189Z,1016.05
2019-02-18T04:15:01.134Z,1016.04
2019-02-18T04:16:01.119Z,1016.05
2019-02-18T04:17:01.135Z,1016.04
2019-02-18T04:18:01.100Z,1016.02
2019-02-18T04:19:01.107Z,1015.98
2019-02-18T04:20:01.092Z,1016.04
2019-02-18T04:21:01.062Z,1016.01
2019-02-18T04:22:01.053Z,1015.93
2019-02-18T04:23:01.055Z,1015.95
2019-02-18T04:24:01.055Z,1015.97
2019-02-18T04:25:01.027Z,1016.00
2019-02-18T04:26:01.029Z,1016.01
2019-02-18T04:27:01.005Z,1016.04
2019-02-18T04:28:01.063Z,1016.03
2019-02-18T04:29:00.979Z,1015.99
2019-02-18T04:30:00.975Z,1016.06
2019-02-18T04:31:00.959Z,1016.07
2019-02-18T04:32:00.946Z,1016.06
2019-02-18T04:33:00.935Z,1016.03
2019-02-18T04:34:00.949Z,1016.06
2019-02-18T04:35:00.947Z,1016.03
2019-02-18T04:36:00.936Z,1016.06
2019-02-18T04:37:00.891Z,1016.03
2019-02-18T04:38:00.879Z,1016.08
2019-02-18T04:39:00.871Z,1016.06
2019-02-18T04:40:00.865Z,1016.04
2019-02-18T04:41:00.892Z,1016.05
2019-02-18T04:42:00.838Z,1016.04
2019-02-18T04:43:00.828Z,1016.04
2019-02-18T04:44:00.810Z,1016.03
2019-02-18T04:45:00.801Z,1016.02
2019-02-18T04:46:00.813Z,1016.01
2019-02-18T04:47:00.805Z,1016.02
2019-02-18T04:48:00.776Z,1015.97
2019-02-18T04:49:00.756Z,1016.01
2019-02-18T04:50:00.745Z,1015.99
2019-02-18T04:51:00.747Z,1016.00
2019-02-18T04:52:00.752Z,1016.02
2019-02-18T04:53:00.724Z,1016.02
2019-02-18T04:54:00.712Z,1015.98
2019-02-18T04:55:00.699Z,1015.97
2019-02-18T04:56:00.684Z,1015.99
2019-02-18T04:57:00.721Z,1015.99
2019-02-18T04:58:00.708Z,1015.94
2019-02-18T04:59:00.651Z,1016.03
2019-02-18T05:00:00.644Z,1016.00
2019-02-18T05:01:02.911Z,1015.95
2019-02-18T05:02:00.665Z,1015.94
2019-02-18T05:03:00.623Z,1015.92
2019-02-18T05:04:00.603Z,1015.91
2019-02-18T05:05:00.589Z,1015.92
2019-02-18T05:06:00.577Z,1015.94
2019-02-18T05:07:00.572Z,1015.91
2019-02-18T05:08:00.589Z,1015.91
2019-02-18T05:09:05.211Z,1015.90
2019-02-18T05:10:00.533Z,1015.95
2019-02-18T05:11:00.525Z,1015.96
2019-02-18T05:12:00.506Z,1015.93
2019-02-18T05:13:00.513Z,1015.91
2019-02-18T05:14:00.524Z,1015.91
2019-02-18T05:15:00.481Z,1015.93
2019-02-18T05:16:00.536Z,1015.88
2019-02-18T05:17:00.463Z,1015.87
2019-02-18T05:18:00.494Z,1015.88
2019-02-18T05:19:00.475Z,1015.90
2019-02-18T05:20:00.444Z,1015.91
2019-02-18T05:21:00.418Z,1015.87
2019-02-18T05:22:00.405Z,1015.87
2019-02-18T05:23:00.401Z,1015.91
2019-02-18T05:24:00.377Z,1015.90
2019-02-18T05:25:00.422Z,1015.89
2019-02-18T05:26:00.368Z,1015.91
2019-02-18T05:27:00.362Z,1015.86
2019-02-18T05:28:00.344Z,1015.89
2019-02-18T05:29:00.373Z,1015.87
2019-02-18T05:30:00.623Z,1015.90
2019-02-18T05:31:00.302Z,1015.87
2019-02-18T05:32:00.299Z,1015.92
2019-02-18T05:33:00.287Z,1015.89
2019-02-18T05:34:00.274Z,1015.94
2019-02-18T05:35:00.448Z,1015.88
2019-02-18T05:36:00.276Z,1015.81
2019-02-18T05:37:00.238Z,1015.87
2019-02-18T05:38:00.227Z,1015.85
2019-02-18T05:39:00.294Z,1015.88
2019-02-18T05:40:00.345Z,1015.88
2019-02-18T05:41:00.196Z,1015.85
2019-02-18T05:42:00.205Z,1015.89
2019-02-18T05:43:00.177Z,1015.90
2019-02-18T05:44:00.167Z,1015.88
2019-02-18T05:45:00.359Z,1015.92
2019-02-18T05:46:00.195Z,1015.94
2019-02-18T05:47:00.136Z,1015.90
2019-02-18T05:48:00.124Z,1015.96
2019-02-18T05:49:00.115Z,1015.88
2019-02-18T05:50:00.437Z,1015.88
2019-02-18T05:51:00.123Z,1015.89
2019-02-18T05:52:00.082Z,1015.89
2019-02-18T05:53:00.076Z,1015.91
2019-02-18T05:54:00.058Z,1015.89
2019-02-18T05:55:00.143Z,1015.93
2019-02-18T05:56:00.089Z,1015.88
2019-02-18T05:57:00.026Z,1015.88
2019-02-18T05:58:00.017Z,1015.85
2019-02-18T05:58:59.999Z,1015.87
2019-02-18T05:59:59.987Z,1015.88
2019-02-18T06:00:59.985Z,1015.87
2019-02-18T06:02:00.026Z,1015.86
2019-02-18T06:02:59.961Z,1015.87
2019-02-18T06:04:00.315Z,1015.87
2019-02-18T06:04:59.934Z,1015.88
2019-02-18T06:05:59.938Z,1015.87
2019-02-18T06:06:59.913Z,1015.90
2019-02-18T06:07:59.941Z,1015.87
2019-02-18T06:08:59.894Z,1015.88
2019-02-18T06:09:59.880Z,1015.92
2019-02-18T06:10:59.875Z,1015.90
2019-02-18T06:11:59.862Z,1015.90
2019-02-18T06:12:59.846Z,1015.86
2019-02-18T06:13:59.878Z,1015.90
2019-02-18T06:14:59.830Z,1015.88
2019-02-18T06:15:59.841Z,1015.85
2019-02-18T06:16:59.802Z,1015.91
2019-02-18T06:17:59.833Z,1015.92
2019-02-18T06:18:59.788Z,1015.93
2019-02-18T06:19:59.777Z,1015.96
2019-02-18T06:20:59.764Z,1015.94
2019-02-18T06:21:59.758Z,1015.95
2019-02-18T06:22:59.815Z,1015.92
2019-02-18T06:23:59.732Z,1015.90
2019-02-18T06:24:59.719Z,1015.94
2019-02-18T06:25:59.714Z,1015.93
2019-02-18T06:26:59.696Z,1015.89
2019-02-18T06:27:59.698Z,1015.97
2019-02-18T06:28:59.730Z,1015.96
2019-02-18T06:29:59.666Z,1016.03
2019-02-18T06:30:59.653Z,1015.91
2019-02-18T06:31:59.644Z,1015.96
2019-02-18T06:33:01.154Z,1015.93
2019-02-18T06:33:59.663Z,1015.95
2019-02-18T06:34:59.621Z,1015.97
2019-02-18T06:35:59.598Z,1015.98
2019-02-18T06:36:59.593Z,1015.96
2019-02-18T06:37:59.577Z,1015.96
2019-02-18T06:38:59.567Z,1015.99
2019-02-18T06:39:59.556Z,1016.03
2019-02-18T06:40:59.585Z,1016.05
2019-02-18T06:41:59.534Z,1016.07
2019-02-18T06:42:59.524Z,1016.05
2019-02-18T06:43:59.512Z,1016.06
2019-02-18T06:44:59.554Z,1016.07
2019-02-18T06:45:59.489Z,1016.03
2019-02-18T06:46:59.483Z,1016.08
2019-02-18T06:47:59.483Z,1016.06
2019-02-18T06:48:59.462Z,1016.08
2019-02-18T06:49:59.452Z,1016.05
2019-02-18T06:50:59.464Z,1016.10
2019-02-18T06:51:59.433Z,1016.13
2019-02-18T06:52:59.439Z,1016.13
2019-02-18T06:53:59.409Z,1016.14
2019-02-18T06:54:59.393Z,1016.16
2019-02-18T06:55:59.420Z,1016.13
2019-02-18T06:56:59.371Z,1016.12
2019-02-18T06:57:59.360Z,1016.16
2019-02-18T06:58:59.353Z,1016.20
2019-02-18T06:59:59.345Z,1016.16
2019-02-18T07:00:59.343Z,1016.15
2019-02-18T07:01:59.319Z,1016.13
2019-02-18T07:02:59.306Z,1016.14
2019-02-18T07:03:59.310Z,1016.19
2019-02-18T07:04:59.286Z,1016.17
2019-02-18T07:05:59.280Z,1016.18
2019-02-18T07:06:59.305Z,1016.15
2019-02-18T07:07:59.256Z,1016.23
2019-02-18T07:08:59.242Z,1016.25
2019-02-18T07:09:59.236Z,1016.25
2019-02-18T07:10:59.247Z,1016.28
2019-02-18T07:11:59.213Z,1016.25
2019-02-18T07:12:59.238Z,1016.18
2019-02-18T07:13:59.193Z,1016.20
2019-02-18T07:14:59.182Z,1016.25
2019-02-18T07:15:59.179Z,1016.28
2019-02-18T07:16:59.156Z,1016.21
2019-02-18T07:17:59.165Z,1016.24
2019-02-18T07:18:59.138Z,1016.19
2019-02-18T07:19:59.132Z,1016.19
2019-02-18T07:20:59.112Z,1016.21
2019-02-18T07:21:59.103Z,1016.21
2019-02-18T07:22:59.095Z,1016.20
2019-02-18T07:23:59.105Z,1016.14
2019-02-18T07:24:59.073Z,1016.16
2019-02-18T07:26:00.068Z,1016.23
2019-02-18T07:26:59.051Z,1016.20
2019-02-18T07:27:59.100Z,1016.19
2019-02-18T07:28:59.039Z,1016.24
2019-02-18T07:29:59.021Z,1016.17
2019-02-18T07:30:59.023Z,1016.21
2019-02-18T07:31:58.994Z,1016.20
2019-02-18T07:32:59.000Z,1016.23
2019-02-18T07:33:59.003Z,1016.22
2019-02-18T07:34:58.962Z,1016.27
2019-02-18T07:35:58.957Z,1016.26
2019-02-18T07:36:58.941Z,1016.31
2019-02-18T07:37:58.936Z,1016.29
2019-02-18T07:38:58.927Z,1016.25
2019-02-18T07:40:01.768Z,1016.25
2019-02-18T07:40:58.901Z,1016.26
2019-02-18T07:41:58.886Z,1016.26
2019-02-18T07:42:58.883Z,1016.33
2019-02-18T07:43:58.865Z,1016.33
2019-02-18T07:44:58.861Z,1016.33
2019-02-18T07:45:58.851Z,1016.36
2019-02-18T07:46:58.839Z,1016.31
2019-02-18T07:47:58.834Z,1016.29
2019-02-18T07:48:58.815Z,1016.28
2019-02-18T07:49:58.805Z,1016.26
2019-02-18T07:50:58.803Z,1016.25
2019-02-18T07:51:58.780Z,1016.25
2019-02-18T07:52:58.818Z,1016.28
2019-02-18T07:53:58.763Z,1016.28
2019-02-18T07:54:58.745Z,1016.24
2019-02-18T07:55:58.732Z,1016.24
2019-02-18T07:56:58.728Z,1016.25
2019-02-18T07:57:58.710Z,1016.26
2019-02-18T07:58:58.742Z,1016.29
2019-02-18T07:59:58.693Z,1016.23
2019-02-18T08:00:58.682Z,1016.24
2019-02-18T08:01:58.695Z,1016.24
2019-02-18T08:02:58.662Z,1016.22
2019-02-18T08:03:58.649Z,1016.22
2019-02-18T08:04:58.638Z,1016.22
2019-02-18T08:05:58.629Z,1016.22
2019-02-18T08:06:58.644Z,1016.21
2019-02-18T08:07:58.605Z,1016.21
2019-02-18T08:08:58.594Z,1016.23
2019-02-18T08:09:58.581Z,1016.21
2019-02-18T08:10:58.567Z,1016.22
2019-02-18T08:11:58.562Z,1016.20
2019-02-18T08:12:58.561Z,1016.25
2019-02-18T08:13:58.539Z,1016.22
2019-02-18T08:14:58.527Z,1016.30
2019-02-18T08:15:58.511Z,1016.28
2019-02-18T08:16:58.511Z,1016.29
2019-02-18T08:17:58.500Z,1016.27
2019-02-18T08:18:58.483Z,1016.27
2019-02-18T08:19:58.474Z,1016.28
2019-02-18T08:20:58.476Z,1016.27
2019-02-18T08:21:58.519Z,1016.31
2019-02-18T08:22:58.462Z,1016.28
2019-02-18T08:24:00.293Z,1016.33
2019-02-18T08:24:58.417Z,1016.33
2019-02-18T08:25:58.407Z,1016.30
2019-02-18T08:26:58.390Z,1016.28
2019-02-18T08:27:58.380Z,1016.31
2019-02-18T08:28:58.421Z,1016.32
2019-02-18T08:29:58.358Z,1016.30
2019-02-18T08:30:58.351Z,1016.29
2019-02-18T08:31:58.339Z,1016.27
2019-02-18T08:32:58.329Z,1016.30
2019-02-18T08:33:58.314Z,1016.25
2019-02-18T08:34:58.347Z,1016.27
2019-02-18T08:35:58.307Z,1016.28
2019-02-18T08:36:58.288Z,1016.26
2019-02-18T08:37:58.275Z,1016.25
2019-02-18T08:38:58.302Z,1016.25
2019-02-18T08:39:58.270Z,1016.24
2019-02-18T08:40:58.277Z,1016.22
2019-02-18T08:41:58.236Z,1016.27
2019-02-18T08:42:58.264Z,1016.27
2019-02-18T08:43:58.210Z,1016.28
2019-02-18T08:44:58.220Z,1016.28
2019-02-18T08:45:58.259Z,1016.31
2019-02-18T08:46:58.176Z,1016.27
2019-02-18T08:47:58.169Z,1016.25
2019-02-18T08:48:58.156Z,1016.33
2019-02-18T08:49:58.148Z,1016.28
2019-02-18T08:50:58.134Z,1016.32
2019-02-18T08:51:58.137Z,1016.36
2019-02-18T08:52:58.113Z,1016.31
2019-02-18T08:53:58.105Z,1016.30
2019-02-18T08:54:58.084Z,1016.24
2019-02-18T08:55:58.079Z,1016.27
2019-02-18T08:56:58.101Z,1016.29
2019-02-18T08:57:58.056Z,1016.30
2019-02-18T08:58:58.087Z,1016.32
2019-02-18T08:59:58.034Z,1016.26
2019-02-18T09:01:02.637Z,1016.24
2019-02-18T09:01:58.009Z,1016.30
2019-02-18T09:02:58.003Z,1016.22
2019-02-18T09:03:57.986Z,1016.24
2019-02-18T09:04:57.976Z,1016.30
2019-02-18T09:05:57.964Z,1016.26
2019-02-18T09:06:58.031Z,1016.23
2019-02-18T09:07:57.948Z,1016.21
2019-02-18T09:08:57.930Z,1016.19
2019-02-18T09:09:57.921Z,1016.17
2019-02-18T09:10:57.919Z,1016.16
2019-02-18T09:11:57.901Z,1016.19
2019-02-18T09:12:57.909Z,1016.09
2019-02-18T09:13:57.877Z,1016.06
2019-02-18T09:14:57.876Z,1016.08
2019-02-18T09:16:00.389Z,1016.10
2019-02-18T09:16:57.844Z,1016.09
2019-02-18T09:17:57.874Z,1016.07
2019-02-18T09:18:57.859Z,1016.07
2019-02-18T09:19:57.810Z,1016.08
2019-02-18T09:20:57.808Z,1016.02
2019-02-18T09:21:57.794Z,1016.06
2019-02-18T09:22:57.815Z,1016.04
2019-02-18T09:23:57.765Z,1016.01
2019-02-18T09:24:57.766Z,1016.03
2019-02-18T09:25:57.746Z,1016.00
2019-02-18T09:26:57.740Z,1015.99
2019-02-18T09:27:57.728Z,1015.98
2019-02-18T09:28:57.732Z,1015.97
2019-02-18T09:29:57.740Z,1015.96
2019-02-18T09:30:57.696Z,1015.96
2019-02-18T09:31:57.681Z,1015.90
2019-02-18T09:32:57.743Z,1015.92
2019-02-18T09:33:57.663Z,1015.93
2019-02-18T09:35:02.021Z,1015.95
2019-02-18T09:35:57.662Z,1015.98
2019-02-18T09:36:57.629Z,1015.88
2019-02-18T09:37:57.619Z,1015.90
2019-02-18T09:38:57.610Z,1015.94
2019-02-18T09:39:57.593Z,1015.88
2019-02-18T09:40:57.620Z,1015.90
2019-02-18T09:41:57.577Z,1015.93
2019-02-18T09:42:57.559Z,1015.86
2019-02-18T09:43:57.547Z,1015.88
2019-02-18T09:44:57.541Z,1015.85
2019-02-18T09:45:57.563Z,1015.83
2019-02-18T09:46:57.591Z,1015.88
2019-02-18T09:47:57.521Z,1015.84
2019-02-18T09:48:57.495Z,1015.84
2019-02-18T09:49:57.483Z,1015.87
2019-02-18T09:50:59.903Z,1015.90
2019-02-18T09:51:57.546Z,1015.87
2019-02-18T09:52:57.450Z,1015.85
2019-02-18T09:53:57.437Z,1015.88
2019-02-18T09:54:57.429Z,1015.89
2019-02-18T09:55:57.426Z,1015.89
2019-02-18T09:56:57.407Z,1015.80
2019-02-18T09:57:57.424Z,1015.84
2019-02-18T09:58:57.393Z,1015.83
2019-02-18T09:59:57.378Z,1015.83
2019-02-18T10:00:57.391Z,1015.85
2019-02-18T10:01:57.351Z,1015.83
2019-02-18T10:02:57.560Z,1015.84
2019-02-18T10:03:57.336Z,1015.82
2019-02-18T10:04:57.325Z,1015.78
2019-02-18T10:05:57.309Z,1015.77
2019-02-18T10:06:57.297Z,1015.80
2019-02-18T10:07:57.361Z,1015.76
2019-02-18T10:08:57.275Z,1015.75
2019-02-18T10:09:57.274Z,1015.85
2019-02-18T10:10:57.258Z,1015.84
2019-02-18T10:11:57.247Z,1015.86
2019-02-18T10:12:59.578Z,1015.84
2019-02-18T10:13:57.265Z,1015.83
2019-02-18T10:14:57.211Z,1015.84
2019-02-18T10:15:57.201Z,1015.82
2019-02-18T10:16:57.189Z,1015.80
2019-02-18T10:17:57.181Z,1015.84
2019-02-18T10:18:57.164Z,1015.87
2019-02-18T10:19:57.195Z,1015.87
2019-02-18T10:20:57.218Z,1015.85
2019-02-18T10:21:57.137Z,1015.84
2019-02-18T10:22:57.122Z,1015.80
2019-02-18T10:23:57.109Z,1015.84
2019-02-18T10:24:57.100Z,1015.79
2019-02-18T10:25:57.097Z,1015.79
2019-02-18T10:26:57.136Z,1015.79
2019-02-18T10:27:57.071Z,1015.80
2019-02-18T10:28:57.054Z,1015.78
2019-02-18T10:29:57.045Z,1015.78
2019-02-18T10:30:57.110Z,1015.76
2019-02-18T10:31:57.028Z,1015.73
2019-02-18T10:32:57.020Z,1015.69
2019-02-18T10:33:57.010Z,1015.69
2019-02-18T10:34:56.992Z,1015.73
2019-02-18T10:35:56.986Z,1015.67
2019-02-18T10:36:57.046Z,1015.62
2019-02-18T10:37:56.964Z,1015.59
2019-02-18T10:38:56.987Z,1015.60
2019-02-18T10:39:56.941Z,1015.58
2019-02-18T10:41:06.469Z,1015.62
2019-02-18T10:41:57.941Z,1015.58
2019-02-18T10:42:56.904Z,1015.57
2019-02-18T10:43:56.898Z,1015.56
2019-02-18T10:44:56.884Z,1015.54
2019-02-18T10:45:56.874Z,1015.54
2019-02-18T10:46:56.865Z,1015.52
2019-02-18T10:47:56.887Z,1015.50
2019-02-18T10:48:56.841Z,1015.52
2019-02-18T10:49:56.829Z,1015.49
2019-02-18T10:50:56.815Z,1015.48
2019-02-18T10:51:56.811Z,1015.47
2019-02-18T10:52:56.849Z,1015.48
2019-02-18T10:53:56.789Z,1015.45
2019-02-18T10:54:56.779Z,1015.42
2019-02-18T10:55:56.761Z,1015.43
2019-02-18T10:56:56.751Z,1015.46
2019-02-18T10:57:56.746Z,1015.42
2019-02-18T10:58:56.744Z,1015.41
2019-02-18T10:59:59.134Z,1015.41
2019-02-18T11:00:56.714Z,1015.36
2019-02-18T11:01:56.697Z,1015.38
2019-02-18T11:02:56.713Z,1015.41
2019-02-18T11:03:56.682Z,1015.34
2019-02-18T11:04:56.664Z,1015.34
2019-02-18T11:05:56.661Z,1015.33
2019-02-18T11:06:56.653Z,1015.31
2019-02-18T11:07:56.708Z,1015.28
2019-02-18T11:08:56.629Z,1015.29
2019-02-18T11:09:56.616Z,1015.25
2019-02-18T11:10:56.610Z,1015.26
2019-02-18T11:11:56.596Z,1015.25
2019-02-18T11:12:56.584Z,1015.19
2019-02-18T11:13:56.608Z,1015.19
2019-02-18T11:14:56.563Z,1015.21
2019-02-18T11:15:56.548Z,1015.16
2019-02-18T11:16:56.544Z,1015.18
2019-02-18T11:17:56.540Z,1015.18
2019-02-18T11:18:56.590Z,1015.18
2019-02-18T11:19:56.502Z,1015.16
2019-02-18T11:20:56.498Z,1015.18
2019-02-18T11:21:56.490Z,1015.11
2019-02-18T11:22:56.480Z,1015.14
2019-02-18T11:23:56.458Z,1015.12
2019-02-18T11:24:56.477Z,1015.10
2019-02-18T11:25:56.442Z,1015.16
2019-02-18T11:26:56.430Z,1015.09
2019-02-18T11:27:56.448Z,1015.13
2019-02-18T11:28:56.409Z,1015.03
2019-02-18T11:29:56.428Z,1015.04
2019-02-18T11:30:56.390Z,1015.05
2019-02-18T11:31:56.377Z,1015.06
2019-02-18T11:32:56.366Z,1015.04
2019-02-18T11:33:56.349Z,1015.02
2019-02-18T11:34:56.415Z,1015.02
2019-02-18T11:35:56.334Z,1015.01
2019-02-18T11:36:56.323Z,1014.94
2019-02-18T11:37:56.310Z,1014.96
2019-02-18T11:38:56.301Z,1015.00
2019-02-18T11:39:56.286Z,1014.98
2019-02-18T11:40:56.314Z,1014.95
2019-02-18T11:41:56.275Z,1014.95
2019-02-18T11:42:56.260Z,1014.93
2019-02-18T11:43:56.247Z,1014.89
2019-02-18T11:44:56.238Z,1014.90
2019-02-18T11:45:56.264Z,1014.87
2019-02-18T11:46:56.235Z,1014.89
2019-02-18T11:47:56.200Z,1014.86
2019-02-18T11:48:56.191Z,1014.85
2019-02-18T11:49:56.184Z,1014.87
2019-02-18T11:50:56.175Z,1014.84
2019-02-18T11:51:56.197Z,1014.87
2019-02-18T11:52:56.155Z,1014.82
2019-02-18T11:53:56.138Z,1014.82
2019-02-18T11:54:56.130Z,1014.86
2019-02-18T11:55:56.118Z,1014.82
2019-02-18T11:56:56.180Z,1014.79
2019-02-18T11:57:56.120Z,1014.75
2019-02-18T11:58:56.084Z,1014.72
2019-02-18T11:59:56.078Z,1014.75
2019-02-18T12:00:56.073Z,1014.74
2019-02-18T12:01:56.056Z,1014.73
2019-02-18T12:03:02.780Z,1014.74
2019-02-18T12:03:57.039Z,1014.67
2019-02-18T12:04:56.019Z,1014.67